Time;durP1;ratioP1;P1;durP2;ratioP2;P2;SDS_P1;SDS_P2;PMS_P1;PMS_P2;Temp;Humidity;BMP_temperature;BMP_pressure;BME280_temperature;BME280_humidity;BME280_pressure;Samples;Min_cycle;Max_cycle;Signal;HPM_P1;HPM_P2
2021/11/25 00:01:07;;;;;;;5.17;4.58;;;;;;;8.98;48.15;102747.91;1735802;82;21054;-60
2021/11/25 00:03:35;;;;;;;5.05;4.55;;;;;;;9.03;48.10;102742.80;1735060;81;21038;-61
2021/11/25 00:06:01;;;;;;;5.20;4.30;;;;;;;9.07;48.02;102747.64;1734343;81;21490;-57
2021/11/25 00:08:30;;;;;;;7.17;4.97;;;;;;;9.09;48.11;102750.69;1735118;82;21527;-60
2021/11/25 00:10:56;;;;;;;8.40;5.80;;;;;;;9.12;47.99;102761.14;1736262;80;21023;-60
2021/11/25 00:13:23;;;;;;;9.20;5.78;;;;;;;9.12;47.99;102752.05;1736239;81;21070;-59
2021/11/25 00:15:50;;;;;;;9.13;6.65;;;;;;;9.11;47.98;102752.88;1734510;81;21070;-58
2021/11/25 00:18:18;;;;;;;8.05;6.75;;;;;;;9.10;47.94;102757.64;1732663;81;21058;-56
2021/11/25 00:20:47;;;;;;;7.42;6.30;;;;;;;9.09;47.99;102757.17;1730534;81;21015;-57
2021/11/25 00:23:14;;;;;;;8.98;7.55;;;;;;;9.07;48.33;102752.38;1724405;81;21519;-60
2021/11/25 00:25:41;;;;;;;13.13;8.23;;;;;;;9.06;48.66;102750.66;1732937;81;21086;-61
2021/11/25 00:28:09;;;;;;;12.88;9.70;;;;;;;9.07;49.09;102744.59;1731085;81;21015;-56
2021/11/25 00:30:38;;;;;;;16.42;11.08;;;;;;;9.08;49.54;102748.95;1725214;81;22159;-58
2021/11/25 00:33:04;;;;;;;15.53;11.48;;;;;;;9.10;49.88;102744.66;1734954;81;20995;-56
2021/11/25 00:35:31;;;;;;;17.02;13.00;;;;;;;9.15;50.04;102747.34;1733249;81;21090;-56
2021/11/25 00:37:58;;;;;;;22.13;14.78;;;;;;;9.18;50.10;102746.95;1731040;81;21534;-61
2021/11/25 00:40:24;;;;;;;20.23;14.23;;;;;;;9.19;50.32;102739.59;1729800;81;21051;-60
2021/11/25 00:42:51;;;;;;;22.07;15.60;;;;;;;9.21;50.62;102748.27;1730353;82;21567;-62
2021/11/25 00:45:18;;;;;;;21.82;14.85;;;;;;;9.24;50.99;102743.14;1736095;81;21145;-60
2021/11/25 00:47:45;;;;;;;18.32;14.45;;;;;;;9.27;51.31;102748.40;1733384;81;21011;-57
2021/11/25 00:50:13;;;;;;;20.37;15.00;;;;;;;9.29;51.45;102744.10;1730851;81;20991;-63
2021/11/25 00:52:40;;;;;;;18.77;13.75;;;;;;;9.30;51.61;102741.94;1730849;81;21039;-61
2021/11/25 00:55:07;;;;;;;19.27;13.62;;;;;;;9.32;51.67;102733.73;1730846;81;21015;-58
2021/11/25 00:57:34;;;;;;;17.20;13.05;;;;;;;9.32;51.61;102728.54;1725962;81;21516;-63
2021/11/25 01:00:00;;;;;;;16.07;12.58;;;;;;;9.32;51.65;102725.95;1734907;81;21015;-60
2021/11/25 01:02:27;;;;;;;15.68;11.60;;;;;;;9.31;51.78;102726.81;1731452;81;21012;-60
2021/11/25 01:04:54;;;;;;;16.65;12.18;;;;;;;9.29;51.73;102723.32;1731991;81;21019;-60
2021/11/25 01:07:22;;;;;;;16.23;11.65;;;;;;;9.29;51.56;102718.13;1730793;81;21012;-57
2021/11/25 01:09:48;;;;;;;14.20;11.55;;;;;;;9.29;51.50;102719.84;1731529;81;21428;-60
2021/11/25 01:12:15;;;;;;;13.40;10.48;;;;;;;9.28;51.40;102717.66;1731143;81;21031;-61
2021/11/25 01:14:42;;;;;;;16.10;10.90;;;;;;;9.30;51.40;102713.77;1733144;81;21032;-61
2021/11/25 01:17:08;;;;;;;14.45;10.60;;;;;;;9.28;51.32;102708.98;1734064;81;21452;-61
2021/11/25 01:19:37;;;;;;;14.05;10.60;;;;;;;9.25;51.21;102713.73;1732167;81;20980;-58
2021/11/25 01:22:04;;;;;;;12.25;10.00;;;;;;;9.21;51.18;102704.12;1730637;81;21483;-57
2021/11/25 01:24:31;;;;;;;18.98;11.45;;;;;;;9.19;51.17;102699.78;1720793;81;21003;-60
2021/11/25 01:26:57;;;;;;;13.65;10.25;;;;;;;9.17;51.28;102701.03;1734003;81;21503;-66
2021/11/25 01:29:23;;;;;;;10.85;9.00;;;;;;;9.16;51.44;102705.80;1729342;82;21078;-58
2021/11/25 01:31:50;;;;;;;13.22;8.43;;;;;;;9.15;51.52;102704.03;1733603;81;21067;-65
2021/11/25 01:34:16;;;;;;;11.83;8.23;;;;;;;9.12;51.56;102701.41;1697222;84;20996;-57
2021/11/25 01:36:44;;;;;;;9.68;7.97;;;;;;;9.10;51.64;102694.02;1697545;84;21050;-61
2021/11/25 01:39:10;;;;;;;9.10;6.97;;;;;;;9.08;51.50;102693.12;1697791;83;21684;-58
2021/11/25 01:41:38;;;;;;;9.90;7.70;;;;;;;9.09;50.74;102697.45;1697643;84;21116;-60
2021/11/25 01:44:06;;;;;;;7.12;5.97;;;;;;;9.07;50.21;102696.55;1698560;84;20986;-63
2021/11/25 01:46:32;;;;;;;6.67;5.20;;;;;;;9.08;49.69;102690.94;1694632;84;21467;-60
2021/11/25 01:48:59;;;;;;;5.95;4.85;;;;;;;9.07;48.77;102692.66;1701120;84;20983;-60
2021/11/25 01:51:25;;;;;;;5.00;4.45;;;;;;;9.05;48.13;102679.23;1698866;84;20990;-62
2021/11/25 01:53:52;;;;;;;4.80;4.03;;;;;;;9.03;47.62;102680.48;1699371;84;21486;-64
2021/11/25 01:56:19;;;;;;;4.15;3.75;;;;;;;9.00;47.36;102682.59;1676856;85;21030;-57
2021/11/25 01:58:46;;;;;;;4.87;3.52;;;;;;;8.97;47.21;102681.27;1723720;81;20943;-56
2021/11/25 02:01:14;;;;;;;4.30;3.80;;;;;;;8.92;47.03;102680.31;1734759;81;21399;-61
2021/11/25 02:03:40;;;;;;;4.83;4.20;;;;;;;8.89;46.95;102679.40;1730441;82;20995;-63
2021/11/25 02:06:08;;;;;;;5.10;3.77;;;;;;;8.84;47.02;102678.47;1690323;84;21499;-59
2021/11/25 02:08:36;;;;;;;5.28;4.25;;;;;;;8.79;47.20;102672.31;1698163;84;21029;-61
2021/11/25 02:11:03;;;;;;;5.25;4.30;;;;;;;8.76;47.35;102675.73;1694424;84;21022;-59
2021/11/25 02:13:30;;;;;;;4.78;4.22;;;;;;;8.72;47.37;102675.23;1700543;84;21057;-57
2021/11/25 02:15:56;;;;;;;4.92;4.22;;;;;;;8.71;47.52;102676.52;1698968;84;21526;-61
2021/11/25 02:18:24;;;;;;;4.28;3.80;;;;;;;8.70;47.74;102677.34;1699001;84;21038;-60
2021/11/25 02:20:55;;;;;;;5.00;4.28;;;;;;;8.67;47.79;102679.91;1699674;84;21042;-61
2021/11/25 02:23:22;;;;;;;4.95;4.03;;;;;;;8.66;47.79;102674.25;1625245;86;21066;-63
2021/11/25 02:25:49;;;;;;;5.10;4.03;;;;;;;8.64;47.88;102674.66;1624723;88;21023;-60
2021/11/25 02:28:21;;;;;;;6.10;4.03;;;;;;;8.63;47.87;102674.22;1622636;88;21562;-59
2021/11/25 02:30:48;;;;;;;4.75;4.12;;;;;;;8.62;48.01;102668.56;1614327;88;21013;-61
2021/11/25 02:33:15;;;;;;;5.47;4.28;;;;;;;8.61;48.22;102669.43;1618985;88;20986;-57
2021/11/25 02:35:42;;;;;;;5.17;4.33;;;;;;;8.60;48.22;102662.48;1624543;88;21086;-62
2021/11/25 02:38:10;;;;;;;6.15;4.87;;;;;;;8.60;48.50;102667.25;1623514;88;21090;-65
2021/11/25 02:40:46;;;;;;;6.17;5.15;;;;;;;8.58;48.67;102666.77;1622732;88;21013;-56
2021/11/25 02:43:17;;;;;;;5.33;4.78;;;;;;;8.57;48.86;102665.05;1538070;92;21151;-60
2021/11/25 02:45:51;;;;;;;8.43;5.95;;;;;;;8.56;49.12;102660.69;1545607;92;21649;-60
2021/11/25 02:48:20;;;;;;;8.45;5.72;;;;;;;8.56;49.38;102658.97;1497446;95;21110;-59
2021/11/25 02:50:47;;;;;;;7.50;5.75;;;;;;;8.56;49.51;102656.79;1499242;95;21096;-60
2021/11/25 02:53:23;;;;;;;6.55;5.08;;;;;;;8.54;49.90;102659.78;1499207;95;21049;-56
2021/11/25 02:55:50;;;;;;;7.97;5.35;;;;;;;8.53;50.00;102658.91;1516484;94;21096;-56
2021/11/25 02:58:16;;;;;;;8.05;5.78;;;;;;;8.53;50.25;102660.66;1488116;95;21058;-59
2021/11/25 03:00:44;;;;;;;5.62;5.12;;;;;;;8.53;50.32;102653.71;1517078;94;21667;-57
2021/11/25 03:03:13;;;;;;;7.95;5.33;;;;;;;8.55;50.29;102656.36;1517808;94;21595;-57
2021/11/25 03:05:43;;;;;;;7.50;5.53;;;;;;;8.57;50.16;102653.36;1518620;94;21079;-60
2021/11/25 03:08:10;;;;;;;5.20;4.70;;;;;;;8.59;50.19;102647.77;1518265;94;21091;-58
2021/11/25 03:10:39;;;;;;;5.70;4.90;;;;;;;8.60;50.21;102646.91;1517447;94;21107;-61
2021/11/25 03:13:07;;;;;;;6.17;5.53;;;;;;;8.62;50.06;102645.21;1496820;95;21211;-61
2021/11/25 03:15:36;;;;;;;6.00;5.17;;;;;;;8.62;50.05;102647.39;1515884;94;21103;-60
2021/11/25 03:18:03;;;;;;;5.58;4.70;;;;;;;8.62;49.96;102650.41;1496903;95;21102;-61
2021/11/25 03:20:30;;;;;;;6.58;5.58;;;;;;;8.62;49.91;102647.81;1539747;91;21122;-57
2021/11/25 03:22:56;;;;;;;6.75;5.10;;;;;;;8.62;49.88;102645.21;1579130;89;21141;-51
2021/11/25 03:25:24;;;;;;;7.75;5.87;;;;;;;8.62;49.87;102640.02;1609944;86;21075;-62
2021/11/25 03:27:51;;;;;;;6.55;5.72;;;;;;;8.61;49.91;102640.89;1648872;86;21031;-63
2021/11/25 03:30:18;;;;;;;8.75;6.05;;;;;;;8.58;49.93;102638.23;1655494;86;21697;-60
2021/11/25 03:32:45;;;;;;;8.05;6.30;;;;;;;8.59;49.80;102642.59;1628368;86;21586;-65
2021/11/25 03:35:12;;;;;;;7.92;6.12;;;;;;;8.58;49.84;102629.14;1648958;86;21067;-61
2021/11/25 03:37:38;;;;;;;7.35;6.47;;;;;;;8.60;49.78;102633.94;1648748;86;21086;-61
2021/11/25 03:40:08;;;;;;;6.67;5.97;;;;;;;8.61;49.60;102635.28;1690693;84;21151;-59
2021/11/25 03:42:35;;;;;;;7.58;5.90;;;;;;;8.62;49.53;102630.52;1716201;82;21498;-61
2021/11/25 03:45:01;;;;;;;8.33;6.95;;;;;;;8.62;49.42;102624.45;1730578;81;20983;-64
2021/11/25 03:47:28;;;;;;;8.60;6.90;;;;;;;8.60;49.39;102624.44;1730951;81;21003;-61
2021/11/25 03:49:54;;;;;;;7.62;6.47;;;;;;;8.59;49.31;102623.13;1734432;81;21062;-60
2021/11/25 03:52:21;;;;;;;9.25;7.78;;;;;;;8.56;49.21;102621.77;1695420;84;21515;-61
2021/11/25 03:54:48;;;;;;;10.43;7.12;;;;;;;8.53;49.24;102619.98;1688651;84;21101;-57
2021/11/25 03:57:14;;;;;;;8.53;7.62;;;;;;;8.50;49.18;102621.25;1695499;84;20974;-60
2021/11/25 03:59:42;;;;;;;8.95;7.90;;;;;;;8.47;49.31;102612.11;1696525;84;21018;-61
2021/11/25 04:02:08;;;;;;;9.80;7.50;;;;;;;8.45;49.33;102615.09;1698154;83;21494;-60
2021/11/25 04:04:34;;;;;;;9.48;7.55;;;;;;;8.45;49.33;102614.25;1697628;84;20959;-61
2021/11/25 04:07:03;;;;;;;10.28;8.13;;;;;;;8.45;49.38;102609.06;1698418;83;20995;-57
2021/11/25 04:09:30;;;;;;;9.48;7.78;;;;;;;8.45;49.48;102615.55;1699442;83;20970;-61
2021/11/25 04:11:57;;;;;;;11.00;7.75;;;;;;;8.45;49.57;102615.55;1701631;83;21026;-62
2021/11/25 04:14:24;;;;;;;10.13;8.50;;;;;;;8.46;49.65;102613.39;1700326;84;21002;-61
2021/11/25 04:16:51;;;;;;;12.13;8.18;;;;;;;8.46;49.75;102617.28;1696621;83;21061;-60
2021/11/25 04:19:18;;;;;;;15.50;9.30;;;;;;;8.46;49.72;102610.38;1700478;83;21046;-60
2021/11/25 04:21:44;;;;;;;15.10;8.85;;;;;;;8.46;49.77;102617.28;1700458;84;21542;-59
2021/11/25 04:24:12;;;;;;;12.07;8.93;;;;;;;8.45;50.00;102607.77;1688565;84;21037;-66
2021/11/25 04:26:39;;;;;;;11.68;8.95;;;;;;;8.44;50.21;102608.59;1703946;84;21170;-62
2021/11/25 04:29:06;;;;;;;12.70;9.13;;;;;;;8.42;50.30;102605.98;1699000;83;21065;-58
2021/11/25 04:37:04;;;;;;;7.72;5.95;;;;;;;8.34;51.19;102596.33;1699377;84;21503;-61
2021/11/25 04:39:30;;;;;;;6.20;5.53;;;;;;;8.34;51.37;102602.81;1697881;84;20991;-63
2021/11/25 04:41:57;;;;;;;6.28;5.08;;;;;;;8.35;51.59;102604.13;1697647;83;21036;-58
2021/11/25 04:44:24;;;;;;;4.45;4.05;;;;;;;8.39;51.58;102602.03;1697979;83;20991;-61
2021/11/25 04:46:52;;;;;;;4.90;4.33;;;;;;;8.46;51.59;102597.82;1698048;82;21014;-57
2021/11/25 04:49:18;;;;;;;5.00;4.10;;;;;;;8.54;51.63;102597.52;1699484;84;21061;-60
2021/11/25 04:51:45;;;;;;;5.20;4.40;;;;;;;8.62;51.60;102595.91;1700508;84;21042;-61
2021/11/25 04:54:11;;;;;;;4.78;4.33;;;;;;;8.70;51.51;102596.89;1699643;84;21522;-58
2021/11/25 04:56:39;;;;;;;5.67;4.00;;;;;;;8.78;51.57;102597.88;1697205;83;21049;-61
2021/11/25 04:59:05;;;;;;;4.55;4.12;;;;;;;8.85;51.53;102591.94;1689152;84;21002;-57
2021/11/25 05:01:32;;;;;;;5.67;4.42;;;;;;;8.93;51.46;102594.22;1699316;83;21104;-60
2021/11/25 05:03:58;;;;;;;7.30;4.25;;;;;;;9.00;51.46;102594.77;1700818;84;21032;-63
2021/11/25 05:06:25;;;;;;;5.75;4.33;;;;;;;9.07;51.59;102593.98;1700515;84;21021;-58
2021/11/25 05:08:52;;;;;;;6.78;4.20;;;;;;;9.14;51.70;102599.72;1697516;83;21026;-60
2021/11/25 05:11:18;;;;;;;4.28;3.90;;;;;;;9.20;52.00;102594.59;1732734;81;21527;-61
2021/11/25 05:13:45;;;;;;;5.05;4.50;;;;;;;9.29;52.08;102599.05;1735581;82;21022;-66
2021/11/25 05:16:11;;;;;;;4.75;4.20;;;;;;;9.36;52.61;102596.53;1735956;81;21026;-66
2021/11/25 05:18:38;;;;;;;4.92;3.98;;;;;;;9.42;52.70;102591.83;1733986;81;21520;-60
2021/11/25 05:21:04;;;;;;;5.05;4.55;;;;;;;9.49;52.94;102594.54;1734104;81;21039;-58
2021/11/25 05:23:31;;;;;;;5.37;4.70;;;;;;;9.57;53.11;102592.90;1720971;82;21518;-59
2021/11/25 05:25:58;;;;;;;5.72;4.72;;;;;;;9.63;53.31;102594.27;1734497;81;21019;-60
2021/11/25 05:28:24;;;;;;;5.30;4.80;;;;;;;9.71;53.51;102590.44;1734325;81;21027;-61
2021/11/25 05:30:52;;;;;;;5.20;4.70;;;;;;;9.76;53.44;102590.95;1722268;81;20979;-58
2021/11/25 05:33:19;;;;;;;6.78;4.90;;;;;;;9.82;53.34;102596.22;1733463;81;21050;-63
2021/11/25 05:35:45;;;;;;;5.42;4.75;;;;;;;9.85;53.37;102592.75;1730147;82;20968;-63
2021/11/25 05:38:14;;;;;;;5.87;4.25;;;;;;;9.88;53.51;102592.80;1700507;84;21534;-61
2021/11/25 05:40:41;;;;;;;5.87;5.12;;;;;;;9.94;53.56;102594.58;1700508;84;21101;-62
2021/11/25 05:43:08;;;;;;;5.67;4.40;;;;;;;9.96;53.63;102588.97;1698751;84;21077;-61
2021/11/25 05:45:37;;;;;;;5.20;4.28;;;;;;;9.99;53.84;102589.01;1698237;84;21010;-58
2021/11/25 05:48:04;;;;;;;5.92;5.00;;;;;;;10.03;53.95;102590.78;1687673;84;21049;-62
2021/11/25 05:50:31;;;;;;;5.22;4.70;;;;;;;10.06;54.04;102588.19;1699818;84;20994;-64
2021/11/25 05:52:58;;;;;;;5.60;4.37;;;;;;;10.09;54.12;102586.52;1697992;84;21471;-60
2021/11/25 05:55:27;;;;;;;5.67;5.08;;;;;;;10.13;54.12;102588.73;1697048;84;20995;-62
2021/11/25 05:57:54;;;;;;;4.97;4.25;;;;;;;10.17;54.15;102587.91;1694028;84;20995;-62
2021/11/25 06:00:21;;;;;;;6.42;4.50;;;;;;;10.24;54.10;102591.02;1698587;84;21494;-60
2021/11/25 06:02:47;;;;;;;4.20;3.80;;;;;;;10.33;53.86;102592.37;1699870;84;21042;-64
2021/11/25 06:05:16;;;;;;;4.47;4.08;;;;;;;10.44;53.95;102590.75;1700044;84;21013;-62
2021/11/25 06:07:47;;;;;;;5.30;4.08;;;;;;;10.56;53.87;102590.84;1700857;84;20983;-60
2021/11/25 06:10:16;;;;;;;4.47;4.00;;;;;;;10.69;53.64;102586.17;1700946;84;21041;-61
2021/11/25 06:12:43;;;;;;;5.70;4.12;;;;;;;10.82;53.52;102587.97;1699903;84;21530;-59
2021/11/25 06:15:10;;;;;;;5.75;4.35;;;;;;;10.94;53.57;102584.59;1697488;84;20987;-62
2021/11/25 06:17:36;;;;;;;4.78;4.30;;;;;;;11.02;53.44;102594.62;1697421;83;21031;-59
2021/11/25 06:20:11;;;;;;;6.40;4.75;;;;;;;11.06;53.24;102590.75;1698089;84;21526;-56
2021/11/25 06:22:33;;;;;;;7.45;4.35;;;;;;;11.14;53.18;102595.98;1694585;83;21057;-58
2021/11/25 06:25:00;;;;;;;6.17;4.53;;;;;;;11.19;53.18;102589.92;1694772;84;21042;-59
2021/11/25 06:27:27;;;;;;;6.78;4.72;;;;;;;11.25;52.96;102589.95;1699200;84;21066;-58
2021/11/25 06:29:54;;;;;;;5.92;4.08;;;;;;;11.29;52.69;102585.19;1688877;83;21548;-59
2021/11/25 06:32:20;;;;;;;4.90;4.45;;;;;;;11.33;52.34;102589.55;1696739;84;21018;-59
2021/11/25 06:34:46;;;;;;;7.00;4.53;;;;;;;11.38;52.27;102589.15;1700511;84;21050;-56
2021/11/25 06:37:13;;;;;;;5.05;4.47;;;;;;;11.42;52.22;102581.77;1700397;84;21050;-57
2021/11/25 06:39:40;;;;;;;5.15;4.37;;;;;;;11.46;51.96;102587.44;1698025;84;21066;-55
2021/11/25 06:42:07;;;;;;;5.47;4.85;;;;;;;11.52;52.10;102588.34;1677643;83;21077;-62
2021/11/25 06:44:33;;;;;;;5.90;4.45;;;;;;;11.56;51.85;102582.27;1735341;81;21089;-59
2021/11/25 06:47:00;;;;;;;6.65;4.85;;;;;;;11.61;51.74;102579.22;1733277;81;21519;-58
2021/11/25 06:49:27;;;;;;;9.13;4.85;;;;;;;11.66;51.66;102579.73;1733267;81;21070;-59
2021/11/25 06:51:54;;;;;;;7.33;4.58;;;;;;;11.70;51.64;102576.69;1729860;81;21114;-58
2021/11/25 06:54:20;;;;;;;9.23;4.87;;;;;;;11.74;51.52;102571.91;1736123;81;21031;-55
2021/11/25 06:56:47;;;;;;;5.47;4.30;;;;;;;11.77;51.53;102571.91;1731908;82;21075;-55
2021/11/25 06:59:13;;;;;;;7.70;4.53;;;;;;;11.78;51.42;102571.05;1725632;81;20996;-56
2021/11/25 07:01:40;;;;;;;5.58;4.28;;;;;;;11.80;51.50;102569.31;1733703;81;21519;-63
2021/11/25 07:04:07;;;;;;;5.30;4.75;;;;;;;11.81;51.61;102565.86;1743348;81;20984;-55
2021/11/25 07:06:34;;;;;;;7.22;4.92;;;;;;;11.82;51.96;102565.85;1736381;81;21033;-57
2021/11/25 07:09:00;;;;;;;6.05;4.83;;;;;;;11.84;51.92;102561.94;1749781;80;21482;-59
2021/11/25 07:11:31;;;;;;;6.15;3.98;;;;;;;11.85;51.94;102559.32;1751522;80;20994;-58
2021/11/25 07:13:58;;;;;;;4.92;4.40;;;;;;;11.86;52.20;102561.08;1743606;80;21492;-59
2021/11/25 07:16:26;;;;;;;5.62;4.42;;;;;;;11.89;52.78;102565.44;1734732;80;21081;-56
2021/11/25 07:18:55;;;;;;;7.35;5.35;;;;;;;11.91;53.05;102556.72;1735359;80;21140;-57
2021/11/25 07:21:21;;;;;;;5.03;4.50;;;;;;;11.95;53.19;102555.01;1736909;80;21048;-61
2021/11/25 07:23:48;;;;;;;6.37;4.92;;;;;;;11.99;53.41;102553.68;1736084;80;20971;-59
2021/11/25 07:26:14;;;;;;;5.10;4.60;;;;;;;12.03;53.03;102554.58;1743380;81;21546;-56
2021/11/25 07:28:42;;;;;;;6.53;5.03;;;;;;;12.06;52.80;102549.34;1732325;81;21097;-60
2021/11/25 07:31:10;;;;;;;7.87;5.03;;;;;;;12.10;52.35;102552.39;1739627;81;21491;-57
2021/11/25 07:33:37;;;;;;;5.92;4.53;;;;;;;12.12;52.23;102551.95;1742528;81;21379;-61
2021/11/25 07:36:05;;;;;;;6.35;4.40;;;;;;;12.14;52.23;102552.82;1735087;81;21042;-59
2021/11/25 07:38:32;;;;;;;5.33;4.00;;;;;;;12.16;52.27;102548.47;1741728;81;21488;-57
2021/11/25 07:40:59;;;;;;;4.30;3.90;;;;;;;12.18;52.23;102546.73;1740462;81;21109;-59
2021/11/25 07:43:28;;;;;;;7.95;4.85;;;;;;;12.21;52.29;102551.97;1742152;80;21280;-61
2021/11/25 07:45:57;;;;;;;4.95;4.45;;;;;;;12.23;52.42;102548.50;1724351;82;21015;-58
2021/11/25 07:48:23;;;;;;;5.17;4.62;;;;;;;12.26;52.27;102546.33;1710401;83;21072;-58
2021/11/25 07:50:51;;;;;;;5.12;4.55;;;;;;;12.29;52.21;102548.92;1727178;81;21468;-57
2021/11/25 07:53:17;;;;;;;5.22;4.00;;;;;;;12.33;52.13;102540.64;1727479;81;21089;-59
2021/11/25 07:55:44;;;;;;;5.42;4.92;;;;;;;12.37;52.00;102547.59;1725517;82;21463;-56
2021/11/25 07:58:11;;;;;;;6.45;4.28;;;;;;;12.39;51.70;102541.52;1734744;81;21034;-59
2021/11/25 08:00:38;;;;;;;5.67;4.55;;;;;;;12.40;51.92;102539.35;1731298;81;21076;-58
2021/11/25 08:03:05;;;;;;;7.08;4.80;;;;;;;12.42;52.34;102536.30;1731337;81;21062;-61
2021/11/25 08:05:31;;;;;;;5.08;4.55;;;;;;;12.44;52.20;102542.39;1717150;82;21097;-59
2021/11/25 08:07:58;;;;;;;6.28;4.45;;;;;;;12.46;52.42;102542.38;1685554;85;20979;-58
2021/11/25 08:10:26;;;;;;;5.62;4.40;;;;;;;12.48;52.68;102544.13;1678187;84;21087;-61
2021/11/25 08:12:58;;;;;;;6.80;5.08;;;;;;;12.50;52.93;102538.47;1679081;84;21059;-57
2021/11/25 08:15:26;;;;;;;4.85;3.85;;;;;;;12.56;52.68;102537.58;1680403;84;21074;-64
2021/11/25 08:17:53;;;;;;;5.25;4.72;;;;;;;12.63;52.41;102534.94;1677858;84;21091;-60
2021/11/25 08:20:20;;;;;;;5.53;4.42;;;;;;;12.72;52.49;102533.62;1675895;84;21008;-62
2021/11/25 08:22:47;;;;;;;6.65;4.67;;;;;;;12.86;52.50;102523.12;1671455;85;21271;-59
2021/11/25 08:25:16;;;;;;;6.33;4.67;;;;;;;12.92;52.38;102516.14;1680554;84;21579;-58
2021/11/25 08:27:43;;;;;;;8.73;5.03;;;;;;;13.02;51.91;102519.16;1717951;82;21010;-56
2021/11/25 08:30:13;;;;;;;4.75;4.25;;;;;;;13.11;51.90;102518.75;1717262;82;21557;-64
2021/11/25 08:32:41;;;;;;;6.17;4.50;;;;;;;13.17;51.36;102518.72;1714802;81;21123;-57
2021/11/25 08:35:09;;;;;;;9.08;4.80;;;;;;;13.18;51.11;102512.59;1714751;82;20999;-59
2021/11/25 08:37:42;;;;;;;6.83;4.30;;;;;;;13.19;50.76;102511.73;1715476;82;20951;-59
2021/11/25 08:40:12;;;;;;;5.62;3.80;;;;;;;13.19;50.31;102511.73;1713177;81;21010;-55
2021/11/25 08:42:39;;;;;;;4.65;3.45;;;;;;;13.22;50.07;102510.40;1725517;82;21056;-59
2021/11/25 08:45:07;;;;;;;6.17;3.15;;;;;;;13.27;49.69;102509.95;1734067;82;21015;-56
2021/11/25 08:47:35;;;;;;;3.55;2.70;;;;;;;13.31;48.30;102506.45;1736397;82;21007;-60
2021/11/25 08:50:04;;;;;;;4.17;2.45;;;;;;;13.31;47.21;102503.83;1735903;82;21002;-61
2021/11/25 08:52:32;;;;;;;3.58;2.52;;;;;;;13.30;46.70;102506.00;1734681;80;21021;-60
2021/11/25 08:54:58;;;;;;;4.97;2.62;;;;;;;13.29;45.76;102493.82;1729983;82;20986;-59
2021/11/25 08:57:25;;;;;;;2.77;2.58;;;;;;;13.30;45.72;102494.23;1735077;81;21009;-56
2021/11/25 08:59:53;;;;;;;4.00;3.35;;;;;;;13.35;46.75;102496.41;1729618;81;21483;-63
2021/11/25 09:02:19;;;;;;;4.40;3.42;;;;;;;13.38;46.47;102492.44;1733133;81;20970;-57
2021/11/25 09:04:47;;;;;;;5.50;3.30;;;;;;;13.39;46.41;102487.23;1733239;81;20971;-59
2021/11/25 09:07:14;;;;;;;4.90;3.30;;;;;;;13.38;46.58;102478.06;1731093;81;21014;-55
2021/11/25 09:09:41;;;;;;;5.20;3.70;;;;;;;13.35;46.28;102471.13;1728060;81;21038;-61
2021/11/25 09:12:09;;;;;;;5.25;4.12;;;;;;;13.35;47.08;102471.13;1738553;81;22137;-58
2021/11/25 09:14:35;;;;;;;9.50;3.95;;;;;;;13.37;48.52;102467.19;1731252;81;20974;-55
2021/11/25 09:17:02;;;;;;;5.75;4.37;;;;;;;13.41;49.24;102464.98;1727250;81;20999;-60
2021/11/25 09:19:29;;;;;;;5.17;4.55;;;;;;;13.47;49.49;102464.94;1736991;82;20975;-56
2021/11/25 09:21:56;;;;;;;5.87;4.67;;;;;;;13.54;49.89;102466.66;1740043;81;21055;-58
2021/11/25 09:24:24;;;;;;;8.30;3.98;;;;;;;13.63;50.16;102466.56;1737840;81;21064;-60
2021/11/25 09:26:52;;;;;;;6.05;4.55;;;;;;;13.71;50.10;102459.09;1700758;82;21007;-58
2021/11/25 09:29:20;;;;;;;6.40;4.15;;;;;;;13.80;50.35;102450.31;1702544;82;21070;-60
2021/11/25 09:31:47;;;;;;;6.75;4.03;;;;;;;13.86;50.06;102452.88;1702674;83;21047;-58
2021/11/25 09:34:14;;;;;;;5.67;4.85;;;;;;;13.89;49.60;102452.41;1701076;82;20959;-57
2021/11/25 09:36:41;;;;;;;4.25;3.80;;;;;;;13.88;49.56;102445.88;1675997;83;21004;-57
2021/11/25 09:39:08;;;;;;;4.62;4.05;;;;;;;13.87;49.48;102441.08;1690137;84;21027;-60
2021/11/25 09:41:35;;;;;;;9.40;5.20;;;;;;;13.86;49.41;102437.18;1702751;82;21555;-59
2021/11/25 09:44:05;;;;;;;7.00;4.53;;;;;;;13.83;49.19;102442.42;1697682;83;21546;-57
2021/11/25 09:46:31;;;;;;;8.43;4.87;;;;;;;13.78;49.15;102435.07;1699513;83;21014;-59
2021/11/25 09:48:58;;;;;;;6.53;5.10;;;;;;;13.71;49.20;102433.37;1690227;84;21575;-58
2021/11/25 09:51:25;;;;;;;6.97;4.33;;;;;;;13.64;49.29;102427.78;1698600;83;21047;-56
2021/11/25 09:53:53;;;;;;;7.20;4.92;;;;;;;13.58;49.76;102432.59;1739247;81;21027;-58
2021/11/25 09:56:20;;;;;;;5.70;4.37;;;;;;;13.52;49.96;102418.69;1743899;81;21046;-64
2021/11/25 09:58:47;;;;;;;5.05;4.55;;;;;;;13.46;50.17;102423.53;1737024;81;21023;-56
2021/11/25 10:01:18;;;;;;;5.47;4.75;;;;;;;13.42;50.10;102420.95;1743259;81;20992;-57
2021/11/25 10:03:50;;;;;;;5.80;4.10;;;;;;;13.37;50.59;102414.90;1734692;81;21579;-65
2021/11/25 10:06:19;;;;;;;6.20;4.40;;;;;;;13.35;50.59;102411.42;1728806;81;20999;-59
2021/11/25 10:08:52;;;;;;;4.55;4.15;;;;;;;13.36;50.28;102413.15;1739932;81;20992;-60
2021/11/25 10:11:23;;;;;;;6.15;4.17;;;;;;;13.42;50.52;102411.80;1737751;82;21010;-57
2021/11/25 10:14:08;;;;;;;6.72;4.65;;;;;;;13.52;50.37;102403.00;1737949;82;21494;-61
2021/11/25 10:16:41;;;;;;;5.72;4.97;;;;;;;13.61;50.12;102406.86;1609100;89;21591;-58
2021/11/25 10:19:17;;;;;;;7.00;4.53;;;;;;;13.74;49.58;102403.27;1607753;88;21046;-59
2021/11/25 10:21:52;;;;;;;6.40;4.50;;;;;;;13.83;49.47;102405.79;1570079;90;21527;-59
2021/11/25 10:24:16;;;;;;;8.60;4.47;;;;;;;13.91;49.40;102396.12;1604733;88;21118;-56
2021/11/25 10:26:43;;;;;;;6.12;4.33;;;;;;;13.95;49.28;102391.74;1575579;90;21060;-59
2021/11/25 10:29:11;;;;;;;6.75;4.85;;;;;;;13.94;49.05;102380.41;1572652;90;21075;-56
2021/11/25 10:31:41;;;;;;;7.00;4.35;;;;;;;13.91;49.34;102383.03;1613349;88;21068;-60
2021/11/25 10:34:17;;;;;;;5.77;4.53;;;;;;;13.85;49.18;102380.48;1611086;88;21062;-56
2021/11/25 10:42:00;;;;;;;5.22;4.58;;;;;;;13.81;49.44;102377.47;1551705;91;21113;-58
2021/11/25 10:44:36;;;;;;;6.60;5.00;;;;;;;13.84;49.27;102381.38;1555136;91;21141;-60
2021/11/25 10:47:10;;;;;;;4.80;4.17;;;;;;;13.86;49.67;102375.69;1529014;93;21113;-59
2021/11/25 10:49:59;;;;;;;5.58;4.60;;;;;;;13.86;49.18;102371.76;1503157;94;21093;-60
2021/11/25 10:52:37;;;;;;;6.65;4.55;;;;;;;13.84;49.29;102366.98;1555682;91;21560;-64
2021/11/25 10:55:17;;;;;;;7.10;4.90;;;;;;;13.81;49.20;102364.38;1555086;91;21058;-60
2021/11/25 10:57:49;;;;;;;5.03;4.47;;;;;;;13.79;49.39;102364.84;1551895;91;21574;-61
2021/11/25 11:00:26;;;;;;;10.08;5.47;;;;;;;13.77;49.81;102360.06;1527691;93;21036;-56
2021/11/25 11:03:07;;;;;;;9.98;4.70;;;;;;;13.77;49.79;102357.02;1552986;91;21577;-59
2021/11/25 11:05:59;;;;;;;5.97;4.90;;;;;;;13.77;49.80;102350.91;1528668;93;21140;-55
2021/11/25 11:08:45;;;;;;;6.05;4.80;;;;;;;13.75;49.86;102350.05;1530439;94;21636;-58
2021/11/25 11:11:12;;;;;;;8.95;5.08;;;;;;;13.70;50.12;102344.86;1524402;93;21068;-61
2021/11/25 11:16:26;;;;;;;7.35;5.35;;;;;;;13.70;50.29;102346.63;1535509;92;21162;-56
2021/11/25 11:18:58;;;;;;;7.03;4.85;;;;;;;13.70;50.33;102344.02;1540530;90;21110;-57
2021/11/25 11:21:49;;;;;;;6.87;4.87;;;;;;;13.70;50.55;102340.94;1566380;89;21034;-57
2021/11/25 11:24:24;;;;;;;;;;;;;;;13.70;50.60;102340.09;1500297;93;21114;-59
2021/11/25 11:26:58;;;;;;;5.92;4.40;;;;;;;13.51;50.95;102335.47;1506312;93;20155;-58
2021/11/25 11:29:27;;;;;;;7.95;4.50;;;;;;;13.63;50.64;102324.02;1499887;94;21054;-57
2021/11/25 11:31:57;;;;;;;6.80;4.75;;;;;;;13.64;50.55;102323.15;1493747;94;21090;-63
2021/11/25 11:34:24;;;;;;;6.65;4.30;;;;;;;13.63;50.47;102322.70;1496608;95;21078;-55
2021/11/25 11:36:53;;;;;;;6.30;4.70;;;;;;;13.63;50.52;102320.09;1491492;95;22382;-57
2021/11/25 11:39:21;;;;;;;8.00;5.00;;;;;;;13.55;50.91;102314.95;1494969;95;21574;-56
2021/11/25 11:41:50;;;;;;;6.55;5.05;;;;;;;13.55;50.66;102308.84;1502941;89;21183;-61
2021/11/25 11:44:25;;;;;;;8.18;4.62;;;;;;;13.52;50.72;102310.16;1584462;89;21101;-61